Time;durP1;ratioP1;P1;durP2;ratioP2;P2;SDS_P1;SDS_P2;PMS_P1;PMS_P2;Temp;Humidity;BMP_temperature;BMP_pressure;BME280_temperature;BME280_humidity;BME280_pressure;Samples;Min_cycle;Max_cycle;Signal;HPM_P1;HPM_P2
2021/05/01 00:00:16;;;;;;;92.20;45.08;;;13.90;61.60;;;;;;5050066;28;20452;-65
2021/05/01 00:02:45;;;;;;;90.38;44.42;;;13.90;61.50;;;;;;5061793;28;20040;-66
2021/05/01 00:05:11;;;;;;;87.80;44.28;;;13.90;61.50;;;;;;5052561;28;20127;-65
2021/05/01 00:07:37;;;;;;;84.13;42.78;;;13.90;61.50;;;;;;5062763;28;20570;-65
2021/05/01 00:10:09;;;;;;;81.40;41.70;;;13.90;61.50;;;;;;5066652;28;20114;-65
2021/05/01 00:12:38;;;;;;;82.03;42.25;;;13.80;61.50;;;;;;5068479;28;20036;-65
2021/05/01 00:15:07;;;;;;;78.20;41.00;;;13.80;61.60;;;;;;5049645;28;20456;-65
2021/05/01 00:17:32;;;;;;;80.55;41.72;;;13.80;61.60;;;;;;5059246;28;20039;-65
2021/05/01 00:19:58;;;;;;;82.25;42.03;;;13.80;61.70;;;;;;5046358;28;20409;-65
2021/05/01 00:22:23;;;;;;;82.95;42.33;;;13.80;61.80;;;;;;5052571;28;20563;-65
2021/05/01 00:24:51;;;;;;;81.25;41.88;;;13.70;61.80;;;;;;5046372;28;20040;-65
2021/05/01 00:27:17;;;;;;;79.47;42.58;;;13.80;61.80;;;;;;5060873;28;20052;-65
2021/05/01 00:29:42;;;;;;;81.47;40.83;;;13.80;61.70;;;;;;5061397;28;20044;-65
2021/05/01 00:32:10;;;;;;;86.65;42.92;;;13.80;61.80;;;;;;5050158;28;20044;-65
2021/05/01 00:34:36;;;;;;;80.03;41.72;;;13.80;61.80;;;;;;5070282;28;20040;-64
2021/05/01 00:37:02;;;;;;;83.35;42.05;;;13.80;61.70;;;;;;5071641;28;20047;-65
2021/05/01 00:39:30;;;;;;;78.53;43.08;;;13.80;61.70;;;;;;5066509;28;20102;-64
2021/05/01 00:41:55;;;;;;;83.72;41.72;;;13.80;61.70;;;;;;5068834;28;20061;-65
2021/05/01 00:44:23;;;;;;;85.30;42.55;;;13.80;61.70;;;;;;5067784;28;20044;-65
2021/05/01 00:46:51;;;;;;;78.65;40.05;;;13.80;61.60;;;;;;5067614;28;20090;-65
2021/05/01 00:49:19;;;;;;;81.57;40.50;;;13.80;61.70;;;;;;5057971;28;20060;-65
2021/05/01 00:51:47;;;;;;;80.70;41.03;;;13.80;62.10;;;;;;5068545;28;20056;-65
2021/05/01 00:54:13;;;;;;;74.35;38.83;;;13.80;61.70;;;;;;5062123;28;20127;-65
2021/05/01 00:56:41;;;;;;;77.25;39.97;;;13.70;61.70;;;;;;5044508;28;20044;-65
2021/05/01 00:59:08;;;;;;;83.43;42.30;;;13.70;61.60;;;;;;5064663;28;20121;-65
2021/05/01 01:01:37;;;;;;;79.88;40.65;;;13.70;61.70;;;;;;5066655;28;20059;-65
2021/05/01 01:04:05;;;;;;;86.43;39.60;;;13.80;61.80;;;;;;5071299;28;20231;-65
2021/05/01 01:06:31;;;;;;;85.03;41.78;;;13.70;61.80;;;;;;5061346;28;20078;-65
2021/05/01 01:08:57;;;;;;;86.72;41.75;;;13.70;61.80;;;;;;5063343;28;20214;-65
2021/05/01 01:11:24;;;;;;;82.13;40.90;;;13.80;61.80;;;;;;5047093;28;20421;-65
2021/05/01 01:13:52;;;;;;;89.55;39.85;;;13.80;61.80;;;;;;5063684;28;20036;-65
2021/05/01 01:16:22;;;;;;;81.82;40.13;;;13.80;61.80;;;;;;5065797;28;20029;-65
2021/05/01 01:18:50;;;;;;;84.78;40.03;;;13.80;61.80;;;;;;5061281;28;20211;-65
2021/05/01 01:21:18;;;;;;;87.03;40.72;;;13.80;61.70;;;;;;5064999;28;20127;-65
2021/05/01 01:23:43;;;;;;;83.63;40.20;;;13.80;61.70;;;;;;5062867;28;20939;-65
2021/05/01 01:26:09;;;;;;;78.40;39.03;;;13.80;61.70;;;;;;5067890;28;20055;-65
2021/05/01 01:28:37;;;;;;;87.95;42.22;;;13.80;61.70;;;;;;5063509;28;20666;-65
2021/05/01 01:31:02;;;;;;;81.53;39.17;;;13.70;61.70;;;;;;5063434;28;20037;-65
2021/05/01 01:33:28;;;;;;;89.40;41.15;;;13.80;61.80;;;;;;5062375;28;20037;-64
2021/05/01 01:35:53;;;;;;;81.90;41.33;;;13.80;61.70;;;;;;5073138;28;20114;-65
2021/05/01 01:38:19;;;;;;;87.75;40.92;;;13.70;61.70;;;;;;5061109;28;20526;-65
2021/05/01 01:40:47;;;;;;;87.68;42.75;;;13.70;61.70;;;;;;5043625;28;20379;-65
2021/05/01 01:43:13;;;;;;;87.07;42.45;;;13.70;61.80;;;;;;5044849;28;20406;-65
2021/05/01 01:45:43;;;;;;;95.70;43.75;;;13.80;61.90;;;;;;5063231;28;20043;-65
2021/05/01 01:48:09;;;;;;;93.68;42.13;;;13.70;61.80;;;;;;5049282;28;20040;-65
2021/05/01 01:50:34;;;;;;;90.93;40.40;;;13.70;61.90;;;;;;5048385;28;20044;-65
2021/05/01 01:53:02;;;;;;;90.47;42.35;;;13.70;61.80;;;;;;5068467;28;20049;-65
2021/05/01 01:55:28;;;;;;;92.78;43.20;;;13.70;61.80;;;;;;5065221;28;20036;-64
2021/05/01 01:57:53;;;;;;;95.50;42.67;;;13.70;61.90;;;;;;5066904;28;20518;-65
2021/05/01 02:00:25;;;;;;;93.22;43.70;;;13.70;62.00;;;;;;5063186;28;20062;-65
2021/05/01 02:02:52;;;;;;;89.38;43.45;;;13.70;62.00;;;;;;5070105;28;20421;-65
2021/05/01 02:05:18;;;;;;;100.25;43.92;;;13.70;62.00;;;;;;5068101;28;20647;-65
2021/05/01 02:07:47;;;;;;;95.88;41.83;;;13.70;62.10;;;;;;5066908;28;20655;-65
2021/05/01 02:10:18;;;;;;;89.05;42.65;;;13.70;62.10;;;;;;5039852;28;20043;-65
2021/05/01 02:12:44;;;;;;;91.03;43.95;;;13.70;62.10;;;;;;5063868;28;20089;-65
2021/05/01 02:15:20;;;;;;;85.70;41.58;;;13.70;62.00;;;;;;5064117;28;20494;-65
2021/05/01 02:17:56;;;;;;;91.30;41.75;;;13.70;62.10;;;;;;5071896;28;20041;-65
2021/05/01 02:20:28;;;;;;;90.97;42.33;;;13.60;62.10;;;;;;5071309;28;20043;-65
2021/05/01 02:22:56;;;;;;;89.85;42.92;;;13.60;62.10;;;;;;5071607;28;20597;-65
2021/05/01 02:25:23;;;;;;;93.30;43.35;;;13.50;62.10;;;;;;5074258;28;20029;-65
2021/05/01 02:27:51;;;;;;;96.85;43.83;;;13.60;62.20;;;;;;5067509;28;20071;-65
2021/05/01 02:30:19;;;;;;;97.25;43.97;;;13.50;62.10;;;;;;5061480;28;20039;-65
2021/05/01 02:32:48;;;;;;;94.13;43.95;;;13.50;62.20;;;;;;5068791;28;20054;-65
2021/05/01 02:35:17;;;;;;;92.85;43.97;;;13.50;62.30;;;;;;5072545;28;20132;-65
2021/05/01 02:37:43;;;;;;;94.55;41.58;;;13.40;62.30;;;;;;5064181;28;20035;-65
2021/05/01 02:40:11;;;;;;;95.00;43.00;;;13.50;62.40;;;;;;5063011;28;20032;-65
2021/05/01 02:42:38;;;;;;;91.43;41.42;;;13.50;62.30;;;;;;5065333;28;20032;-64
2021/05/01 02:45:10;;;;;;;93.13;41.75;;;13.50;62.30;;;;;;5065899;28;20725;-65
2021/05/01 02:47:36;;;;;;;90.75;41.03;;;13.50;62.20;;;;;;5042985;28;20043;-65
2021/05/01 02:50:04;;;;;;;88.57;39.78;;;13.50;62.20;;;;;;5066951;28;20048;-65
2021/05/01 02:52:30;;;;;;;82.68;38.85;;;13.50;62.20;;;;;;5046833;28;20193;-64
2021/05/01 02:54:55;;;;;;;89.25;38.55;;;13.50;62.20;;;;;;5067906;28;20041;-64
2021/05/01 02:57:23;;;;;;;84.43;37.60;;;13.50;62.20;;;;;;5064600;28;20123;-65
2021/05/01 02:59:49;;;;;;;81.95;38.30;;;13.50;62.20;;;;;;5060712;28;20040;-65
2021/05/01 03:02:17;;;;;;;84.18;37.88;;;13.50;62.10;;;;;;5068010;28;20136;-65
2021/05/01 03:04:47;;;;;;;78.32;38.35;;;13.50;62.20;;;;;;5064751;28;20035;-65
2021/05/01 03:07:12;;;;;;;77.50;37.08;;;13.40;62.10;;;;;;5044030;28;20036;-65
2021/05/01 03:09:38;;;;;;;82.90;37.67;;;13.40;62.20;;;;;;5062134;28;20074;-65
2021/05/01 03:12:04;;;;;;;84.00;36.90;;;13.30;62.10;;;;;;5056956;28;23392;-65
2021/05/01 03:14:32;;;;;;;77.97;36.35;;;13.30;62.20;;;;;;5061676;28;20552;-65
2021/05/01 03:17:00;;;;;;;85.32;37.47;;;13.30;62.20;;;;;;5060226;28;20055;-66
2021/05/01 03:19:28;;;;;;;80.45;36.97;;;13.30;62.30;;;;;;5056580;28;20088;-65
2021/05/01 03:21:58;;;;;;;86.32;36.30;;;13.30;62.30;;;;;;5054206;28;20093;-65
2021/05/01 03:24:24;;;;;;;82.68;36.00;;;13.30;62.30;;;;;;5057452;28;20170;-65
2021/05/01 03:26:49;;;;;;;85.32;36.83;;;13.20;62.30;;;;;;5058764;28;20157;-65
2021/05/01 03:29:17;;;;;;;82.47;34.13;;;13.30;62.30;;;;;;5061553;28;20048;-65
2021/05/01 03:31:45;;;;;;;77.95;36.10;;;13.30;62.30;;;;;;5061494;28;20036;-65
2021/05/01 03:34:10;;;;;;;78.57;36.10;;;13.20;62.30;;;;;;5059389;28;20036;-65
2021/05/01 03:36:36;;;;;;;80.95;36.08;;;13.20;62.30;;;;;;5045389;28;20078;-65
2021/05/01 03:39:02;;;;;;;81.18;35.90;;;13.20;62.30;;;;;;5060767;28;20231;-66
2021/05/01 03:41:27;;;;;;;84.70;35.72;;;13.30;62.40;;;;;;5046848;28;20154;-64
2021/05/01 03:43:53;;;;;;;84.22;36.03;;;13.30;62.30;;;;;;5063809;28;20402;-65
2021/05/01 03:46:19;;;;;;;81.38;35.58;;;13.30;62.30;;;;;;5062089;28;20512;-65
2021/05/01 03:48:44;;;;;;;82.93;34.97;;;13.30;62.30;;;;;;5058549;28;20119;-65
2021/05/01 03:51:12;;;;;;;85.95;37.95;;;13.30;62.30;;;;;;5067138;28;20032;-65
2021/05/01 03:53:38;;;;;;;76.93;35.00;;;13.30;62.30;;;;;;5061007;28;20425;-65
2021/05/01 03:56:06;;;;;;;86.90;36.90;;;13.30;62.30;;;;;;5067631;28;20032;-65
2021/05/01 03:58:31;;;;;;;94.97;39.17;;;13.30;62.20;;;;;;5062640;28;20470;-65
2021/05/01 04:00:59;;;;;;;86.53;35.50;;;13.30;62.30;;;;;;5061698;28;20071;-66
2021/05/01 04:03:27;;;;;;;92.72;39.33;;;13.30;62.30;;;;;;5058368;28;20067;-65
2021/05/01 04:05:55;;;;;;;91.57;38.55;;;13.30;62.20;;;;;;5045676;28;20040;-65
2021/05/01 04:08:23;;;;;;;92.45;38.78;;;13.30;62.20;;;;;;5028314;28;20067;-66
2021/05/01 04:10:48;;;;;;;92.35;38.25;;;13.30;62.30;;;;;;5061641;28;20047;-66
2021/05/01 04:13:18;;;;;;;92.95;39.60;;;13.30;62.30;;;;;;5064254;28;20031;-66
2021/05/01 04:15:46;;;;;;;91.25;40.15;;;13.30;62.30;;;;;;5060315;28;20623;-66
2021/05/01 04:18:15;;;;;;;102.28;42.25;;;13.30;62.30;;;;;;5067342;28;20497;-66
2021/05/01 04:20:43;;;;;;;99.50;40.47;;;13.30;62.30;;;;;;5070403;28;20036;-66
2021/05/01 04:23:09;;;;;;;93.28;39.28;;;13.30;62.40;;;;;;5054717;28;20147;-66
2021/05/01 04:25:38;;;;;;;93.75;41.15;;;13.30;62.40;;;;;;5046200;28;20034;-66
2021/05/01 04:28:05;;;;;;;97.47;40.80;;;13.30;62.30;;;;;;5059548;28;20036;-66
2021/05/01 04:30:31;;;;;;;96.35;40.83;;;13.30;62.30;;;;;;5064918;28;20063;-65
2021/05/01 04:32:59;;;;;;;94.82;40.63;;;13.30;62.30;;;;;;5058891;28;20089;-65
2021/05/01 04:35:25;;;;;;;99.55;40.85;;;13.30;62.40;;;;;;5065967;28;20035;-65
2021/05/01 04:37:53;;;;;;;95.07;40.70;;;13.30;63.30;;;;;;5065365;28;20028;-65
2021/05/01 04:40:18;;;;;;;97.03;41.88;;;13.30;62.70;;;;;;5063071;28;20032;-65
2021/05/01 04:42:52;;;;;;;96.03;40.45;;;13.30;62.70;;;;;;5060418;28;20047;-65
2021/05/01 04:45:20;;;;;;;93.45;41.35;;;13.30;62.80;;;;;;5065964;28;20652;-65
2021/05/01 04:47:46;;;;;;;87.75;37.80;;;13.40;62.80;;;;;;5045840;28;20040;-66
2021/05/01 04:50:15;;;;;;;91.28;42.75;;;13.40;62.70;;;;;;5070711;28;20497;-65
2021/05/01 04:52:41;;;;;;;93.38;40.15;;;13.40;62.70;;;;;;5046417;28;20398;-65
2021/05/01 04:55:13;;;;;;;91.10;41.65;;;13.40;62.70;;;;;;5062549;28;20062;-65
2021/05/01 04:57:47;;;;;;;92.93;40.72;;;13.40;62.60;;;;;;5063567;28;20037;-65
2021/05/01 05:00:15;;;;;;;91.55;40.42;;;13.50;62.70;;;;;;5063003;28;20040;-65
2021/05/01 05:02:41;;;;;;;97.43;40.72;;;13.50;62.60;;;;;;5063896;28;20121;-65
2021/05/01 05:05:08;;;;;;;103.10;43.38;;;13.50;62.70;;;;;;5065968;28;20126;-65
2021/05/01 05:07:38;;;;;;;102.10;44.33;;;13.50;62.70;;;;;;5048121;28;20075;-65
2021/05/01 05:10:05;;;;;;;108.85;45.33;;;13.60;62.80;;;;;;5071919;28;20044;-65
2021/05/01 05:12:33;;;;;;;108.05;45.15;;;13.60;62.80;;;;;;5057521;28;20129;-65
2021/05/01 05:14:58;;;;;;;114.47;47.63;;;13.70;62.80;;;;;;5063479;28;20043;-65
2021/05/01 05:17:24;;;;;;;124.28;51.15;;;13.70;62.80;;;;;;5049637;28;20032;-65
2021/05/01 05:19:52;;;;;;;108.55;48.20;;;13.70;62.70;;;;;;5060068;28;20044;-65
2021/05/01 05:22:22;;;;;;;108.93;49.33;;;13.80;62.80;;;;;;5066884;28;20032;-65
2021/05/01 05:24:53;;;;;;;116.28;49.25;;;13.80;62.60;;;;;;5070992;28;20040;-66
2021/05/01 05:27:20;;;;;;;129.98;52.97;;;13.80;62.60;;;;;;5069652;28;20185;-66
2021/05/01 05:29:52;;;;;;;138.18;55.28;;;13.90;62.60;;;;;;5070587;28;20051;-65
2021/05/01 05:32:21;;;;;;;135.27;56.97;;;13.80;62.50;;;;;;5049983;28;20060;-65
2021/05/01 05:34:47;;;;;;;135.45;57.38;;;13.80;62.40;;;;;;5066914;28;20096;-65
2021/05/01 05:37:12;;;;;;;141.95;58.35;;;13.80;62.40;;;;;;5069808;28;21458;-66
2021/05/01 05:39:40;;;;;;;140.40;58.88;;;13.80;62.40;;;;;;5067932;28;20063;-65
2021/05/01 05:42:07;;;;;;;135.20;58.13;;;13.80;62.50;;;;;;5057869;28;20379;-65
2021/05/01 05:44:33;;;;;;;145.75;58.97;;;13.80;62.60;;;;;;5066866;28;20045;-65
2021/05/01 05:46:59;;;;;;;154.43;60.95;;;13.90;62.80;;;;;;5069842;28;20124;-65
2021/05/01 05:49:29;;;;;;;147.55;60.90;;;13.90;62.80;;;;;;5070689;28;20436;-65
2021/05/01 05:51:55;;;;;;;152.43;60.35;;;13.90;62.80;;;;;;5071522;28;20054;-65
2021/05/01 05:54:20;;;;;;;136.80;60.35;;;14.00;62.80;;;;;;5065316;28;20036;-65
2021/05/01 05:56:48;;;;;;;141.02;58.17;;;14.10;62.70;;;;;;5082950;28;20151;-65
2021/05/01 05:59:14;;;;;;;145.43;61.72;;;14.10;62.70;;;;;;5081214;28;20035;-65
2021/05/01 06:01:45;;;;;;;133.30;59.53;;;14.20;62.60;;;;;;5065943;28;20048;-65
2021/05/01 06:04:24;;;;;;;134.32;59.28;;;14.30;62.90;;;;;;5078398;28;20181;-65
2021/05/01 06:07:05;;;;;;;127.43;57.50;;;14.40;62.70;;;;;;5072145;28;20047;-65
2021/05/01 06:09:33;;;;;;;128.80;57.55;;;14.50;62.40;;;;;;5039270;28;20044;-65
2021/05/01 06:12:00;;;;;;;120.38;58.03;;;14.60;62.40;;;;;;5072365;28;20605;-65
2021/05/01 06:14:27;;;;;;;124.32;56.63;;;14.70;62.20;;;;;;5053978;28;20077;-65
2021/05/01 06:16:55;;;;;;;118.03;56.85;;;14.70;61.80;;;;;;5052848;28;20032;-65
2021/05/01 06:19:23;;;;;;;114.38;55.90;;;14.80;61.90;;;;;;5082362;28;20032;-64
2021/05/01 06:21:49;;;;;;;112.80;55.00;;;14.80;61.70;;;;;;5082129;28;20086;-65
2021/05/01 06:24:16;;;;;;;108.20;54.10;;;14.90;61.50;;;;;;5078555;28;20517;-65
2021/05/01 06:26:42;;;;;;;99.65;54.58;;;15.00;61.10;;;;;;5082389;28;20063;-65
2021/05/01 06:29:08;;;;;;;102.72;52.05;;;15.10;60.70;;;;;;5081502;28;20075;-65
2021/05/01 06:31:36;;;;;;;97.97;51.35;;;15.10;60.20;;;;;;5081967;28;20516;-65
2021/05/01 06:34:02;;;;;;;97.70;53.22;;;15.10;60.00;;;;;;5084407;28;20976;-65
2021/05/01 06:36:28;;;;;;;103.93;53.95;;;15.20;60.10;;;;;;5077702;28;20041;-66
2021/05/01 06:38:59;;;;;;;105.13;55.05;;;15.30;60.30;;;;;;5078007;28;20079;-65
2021/05/01 06:41:28;;;;;;;106.82;54.30;;;15.30;60.10;;;;;;5079587;28;20028;-65
2021/05/01 06:44:05;;;;;;;99.78;51.72;;;15.40;59.60;;;;;;5077083;28;20036;-65
2021/05/01 06:46:35;;;;;;;102.38;53.53;;;15.30;59.30;;;;;;5069631;28;20172;-65
2021/05/01 06:49:03;;;;;;;108.28;55.97;;;15.30;59.30;;;;;;5075076;28;20496;-65
2021/05/01 06:51:29;;;;;;;102.65;52.10;;;15.20;59.30;;;;;;5078051;28;20127;-64
2021/05/01 06:53:59;;;;;;;107.85;55.08;;;15.10;59.40;;;;;;5077586;28;20043;-65
2021/05/01 06:56:31;;;;;;;111.93;57.05;;;15.10;59.50;;;;;;5079809;28;20068;-65
2021/05/01 06:59:04;;;;;;;112.13;57.67;;;15.10;59.60;;;;;;5081008;28;20101;-65
2021/05/01 07:01:33;;;;;;;108.15;56.40;;;15.20;59.80;;;;;;5058606;28;20044;-65
2021/05/01 07:04:02;;;;;;;102.28;54.40;;;15.40;60.00;;;;;;5083125;28;20038;-65
2021/05/01 07:06:28;;;;;;;105.60;54.90;;;15.50;59.80;;;;;;5051654;28;20047;-65
2021/05/01 07:08:53;;;;;;;100.30;53.58;;;15.70;59.60;;;;;;5075675;28;20413;-65
2021/05/01 07:11:21;;;;;;;92.25;52.22;;;15.90;59.20;;;;;;5077505;28;20123;-65
2021/05/01 07:13:48;;;;;;;93.43;52.22;;;16.10;59.00;;;;;;5057178;28;20743;-65
2021/05/01 07:16:16;;;;;;;93.88;51.28;;;16.30;58.80;;;;;;5079757;28;20410;-65
2021/05/01 07:18:43;;;;;;;94.97;53.45;;;16.40;58.30;;;;;;5077647;28;20055;-65
2021/05/01 07:21:11;;;;;;;98.45;54.28;;;16.70;58.20;;;;;;5073048;28;20581;-65
2021/05/01 07:23:37;;;;;;;90.40;52.05;;;16.90;58.10;;;;;;5081205;28;20536;-64
2021/05/01 07:26:05;;;;;;;89.60;51.53;;;17.30;57.70;;;;;;5077077;28;20040;-65
2021/05/01 07:28:35;;;;;;;82.47;49.45;;;17.70;56.40;;;;;;5070815;28;20450;-65
2021/05/01 07:31:06;;;;;;;83.00;49.55;;;17.80;55.30;;;;;;5071673;28;20031;-65
2021/05/01 07:33:41;;;;;;;86.18;49.25;;;17.90;54.90;;;;;;5049530;28;20043;-65
2021/05/01 07:36:43;;;;;;;89.30;50.25;;;17.80;54.20;;;;;;5069078;28;20549;-65
2021/05/01 07:39:10;;;;;;;84.25;48.35;;;17.80;54.80;;;;;;5061034;28;20039;-65
2021/05/01 07:41:40;;;;;;;87.25;49.20;;;17.90;54.40;;;;;;5069468;28;20102;-65
2021/05/01 07:44:11;;;;;;;87.50;50.85;;;17.70;54.10;;;;;;5060205;28;20048;-65
2021/05/01 07:46:41;;;;;;;81.25;47.50;;;17.50;54.00;;;;;;5063705;28;20047;-65
2021/05/01 07:49:08;;;;;;;80.15;48.25;;;17.30;54.00;;;;;;5065359;28;20118;-65
2021/05/01 07:51:39;;;;;;;90.45;50.38;;;17.10;54.30;;;;;;5065178;28;20410;-64
2021/05/01 07:54:05;;;;;;;87.38;48.75;;;16.80;54.70;;;;;;5063092;28;20404;-65
2021/05/01 07:56:30;;;;;;;80.05;49.40;;;16.70;55.70;;;;;;5067413;28;20043;-65
2021/05/01 07:59:01;;;;;;;85.53;49.75;;;16.60;55.20;;;;;;5068735;28;20043;-64
2021/05/01 08:01:30;;;;;;;87.25;50.00;;;16.50;55.30;;;;;;5053883;28;20094;-65
2021/05/01 08:03:58;;;;;;;83.38;49.95;;;16.40;55.70;;;;;;5066655;28;21222;-65
2021/05/01 08:06:26;;;;;;;83.32;48.92;;;16.50;55.90;;;;;;5067761;28;20524;-65
2021/05/01 08:08:51;;;;;;;82.65;48.65;;;16.40;55.80;;;;;;5047792;28;20046;-65
2021/05/01 08:11:17;;;;;;;81.65;48.60;;;16.40;56.30;;;;;;5049962;28;20041;-65
2021/05/01 08:13:42;;;;;;;74.03;47.30;;;16.50;56.40;;;;;;5048966;28;20189;-65
2021/05/01 08:16:08;;;;;;;77.68;47.55;;;16.60;56.10;;;;;;5052551;28;20032;-65
2021/05/01 08:18:36;;;;;;;72.20;45.20;;;16.80;56.70;;;;;;5065762;28;20039;-65
2021/05/01 08:21:04;;;;;;;73.72;44.15;;;17.40;56.50;;;;;;5070757;28;20047;-65
2021/05/01 08:23:33;;;;;;;67.72;42.30;;;17.80;55.10;;;;;;5074057;28;20481;-65
2021/05/01 08:26:00;;;;;;;62.45;41.97;;;18.20;54.50;;;;;;5073012;28;20562;-66
2021/05/01 08:28:26;;;;;;;60.28;39.95;;;18.70;53.30;;;;;;5054189;28;20060;-65
2021/05/01 08:30:51;;;;;;;63.33;41.05;;;19.20;52.60;;;;;;5073728;28;25706;-64
2021/05/01 08:33:19;;;;;;;60.90;39.55;;;19.50;51.20;;;;;;5073462;28;20432;-65
2021/05/01 08:35:45;;;;;;;60.80;40.53;;;19.50;50.30;;;;;;5068819;28;20037;-65
2021/05/01 08:38:13;;;;;;;58.05;38.22;;;19.50;50.60;;;;;;5058967;28;20583;-66
2021/05/01 08:40:41;;;;;;;56.88;37.90;;;19.70;50.90;;;;;;5052889;28;20040;-65
2021/05/01 08:43:08;;;;;;;59.03;39.97;;;20.10;50.70;;;;;;5068793;28;20048;-66
2021/05/01 08:45:36;;;;;;;52.35;36.20;;;21.00;49.70;;;;;;5081026;28;20033;-66
2021/05/01 08:48:03;;;;;;;53.42;37.30;;;21.30;47.60;;;;;;5077072;28;20037;-66
2021/05/01 08:50:31;;;;;;;54.92;36.15;;;21.70;47.30;;;;;;5060647;28;20036;-66
2021/05/01 08:53:00;;;;;;;50.15;35.47;;;22.00;46.00;;;;;;5079925;28;20150;-66
2021/05/01 08:55:28;;;;;;;54.22;36.47;;;22.30;44.50;;;;;;5083266;28;20028;-66
2021/05/01 08:57:54;;;;;;;51.33;35.90;;;22.20;43.40;;;;;;5077764;28;20027;-66
2021/05/01 09:00:23;;;;;;;49.72;35.17;;;21.70;43.80;;;;;;5084964;28;20090;-65
2021/05/01 09:02:52;;;;;;;47.85;32.65;;;21.80;44.90;;;;;;5084241;28;20043;-66
2021/05/01 09:05:17;;;;;;;44.25;31.90;;;22.40;43.90;;;;;;5079257;28;20039;-66
2021/05/01 09:07:45;;;;;;;47.22;32.97;;;22.50;41.70;;;;;;5071248;28;20028;-65
2021/05/01 09:10:11;;;;;;;42.80;30.55;;;22.30;41.90;;;;;;5059479;28;20094;-66
2021/05/01 09:12:45;;;;;;;43.13;30.08;;;22.30;43.00;;;;;;5072732;28;20248;-66
2021/05/01 09:15:15;;;;;;;40.55;28.35;;;;;;;;;;5074501;28;20704;-66
2021/05/01 09:17:41;;;;;;;40.08;29.45;;;;;;;;;;5068169;28;20044;-66
2021/05/01 09:20:10;;;;;;;37.30;27.23;;;22.70;42.30;;;;;;5060682;28;20715;-66
2021/05/01 09:22:56;;;;;;;33.70;24.75;;;23.50;37.90;;;;;;5078990;28;20614;-66
2021/05/01 09:25:23;;;;;;;36.17;24.77;;;;;;;;;;5071209;28;20044;-66
2021/05/01 09:28:10;;;;;;;35.40;25.55;;;22.60;38.90;;;;;;5061740;28;20032;-65
2021/05/01 09:30:41;;;;;;;33.90;22.98;;;21.30;41.00;;;;;;5061072;28;20101;-65
2021/05/01 09:33:37;;;;;;;33.10;23.23;;;20.90;41.50;;;;;;5062790;28;20043;-66
2021/05/01 09:36:18;;;;;;;27.27;20.33;;;20.50;42.50;;;;;;5073989;28;20039;-66
2021/05/01 09:38:49;;;;;;;22.42;17.25;;;20.30;43.20;;;;;;5054375;28;20184;-66
2021/05/01 09:41:23;;;;;;;24.63;17.33;;;20.20;43.30;;;;;;5081944;28;20039;-65
2021/05/01 09:44:04;;;;;;;26.42;19.55;;;20.20;43.50;;;;;;5070749;28;20097;-65
2021/05/01 09:46:38;;;;;;;26.95;19.65;;;20.10;43.70;;;;;;5073721;28;20124;-65
2021/05/01 09:49:06;;;;;;;26.13;19.13;;;20.00;44.00;;;;;;5071127;28;20125;-66
2021/05/01 09:51:58;;;;;;;23.67;17.83;;;20.10;44.50;;;;;;5077753;28;20047;-65
2021/05/01 09:54:24;;;;;;;25.58;18.30;;;20.60;44.40;;;;;;5043797;28;20695;-65
2021/05/01 09:56:51;;;;;;;25.10;18.73;;;21.20;42.70;;;;;;5076622;28;20059;-65
2021/05/01 09:59:19;;;;;;;25.65;18.48;;;21.40;41.90;;;;;;5067347;28;20079;-66
2021/05/01 10:02:01;;;;;;;25.88;18.10;;;21.50;42.00;;;;;;5064888;28;20674;-65
2021/05/01 10:04:30;;;;;;;27.55;19.73;;;22.00;41.20;;;;;;5065935;28;20052;-66
2021/05/01 10:06:59;;;;;;;26.55;19.48;;;22.50;40.90;;;;;;5064266;28;20522;-65
2021/05/01 10:09:30;;;;;;;23.40;17.70;;;23.10;39.60;;;;;;5066049;28;20044;-65
2021/05/01 10:12:37;;;;;;;23.65;18.02;;;24.00;37.70;;;;;;5037243;28;20041;-65
2021/05/01 10:15:13;;;;;;;23.67;18.25;;;;;;;;;;5041900;28;20608;-65
2021/05/01 10:17:39;;;;;;;21.75;17.42;;;;;;;;;;5074541;28;20684;-66
2021/05/01 10:20:06;;;;;;;24.35;17.65;;;;;;;;;;5076245;28;20036;-65
2021/05/01 10:22:32;;;;;;;23.23;18.15;;;;;;;;;;5077911;28;20562;-65
2021/05/01 10:25:03;;;;;;;22.00;18.13;;;;;;;;;;5068507;28;20059;-65
2021/05/01 10:27:29;;;;;;;21.08;17.23;;;;;;;;;;5061417;28;20040;-66
2021/05/01 10:30:09;;;;;;;25.33;17.90;;;;;;;;;;5051144;28;20038;-65
2021/05/01 10:32:43;;;;;;;22.02;17.08;;;;;;;;;;5048692;28;20041;-66
2021/05/01 10:35:09;;;;;;;21.50;16.52;;;;;;;;;;5052856;28;20068;-65
2021/05/01 10:37:40;;;;;;;21.45;16.52;;;;;;;;;;5039121;28;20124;-65
2021/05/01 10:40:06;;;;;;;19.67;15.13;;;24.90;37.00;;;;;;5065896;28;20154;-66
2021/05/01 10:42:32;;;;;;;16.92;14.27;;;;;;;;;;5074801;28;20035;-65
2021/05/01 10:45:01;;;;;;;18.60;14.90;;;;;;;;;;5065480;28;20028;-65
2021/05/01 10:47:27;;;;;;;19.95;14.65;;;25.80;33.10;;;;;;5080783;28;20098;-66
2021/05/01 10:49:55;;;;;;;20.67;15.98;;;25.20;31.30;;;;;;5071360;28;20036;-66
2021/05/01 10:52:22;;;;;;;20.90;16.05;;;24.50;33.00;;;;;;5050129;28;20032;-65
2021/05/01 10:55:04;;;;;;;21.20;16.75;;;24.00;33.90;;;;;;5065934;28;20067;-65
2021/05/01 10:57:32;;;;;;;21.88;17.02;;;23.50;33.80;;;;;;5048191;28;20043;-65
2021/05/01 11:00:00;;;;;;;21.73;16.55;;;22.90;35.00;;;;;;5069987;28;20702;-66
2021/05/01 11:02:47;;;;;;;21.73;16.80;;;22.40;35.70;;;;;;5076336;28;20044;-66
2021/05/01 11:05:17;;;;;;;22.85;17.60;;;21.90;36.20;;;;;;5074713;28;20413;-65
2021/05/01 11:07:59;;;;;;;24.83;18.05;;;21.50;37.60;;;;;;5069564;28;20596;-65
2021/05/01 11:10:28;;;;;;;26.52;18.20;;;21.10;38.40;;;;;;5071162;28;20123;-65
2021/05/01 11:12:57;;;;;;;25.00;18.58;;;20.90;38.90;;;;;;5064542;28;20545;-65
2021/05/01 11:15:26;;;;;;;25.48;18.63;;;20.60;39.10;;;;;;5073086;28;20040;-65
2021/05/01 11:18:06;;;;;;;29.83;19.25;;;20.40;39.20;;;;;;5071284;28;20065;-66
2021/05/01 11:20:33;;;;;;;28.75;19.55;;;20.20;39.40;;;;;;5052854;28;20062;-65
2021/05/01 11:22:59;;;;;;;29.77;20.35;;;20.00;39.40;;;;;;5054642;28;20062;-65
2021/05/01 11:25:27;;;;;;;26.30;18.52;;;19.70;40.50;;;;;;5060879;28;20040;-65
2021/05/01 11:27:56;;;;;;;29.70;19.45;;;19.50;40.50;;;;;;5066279;28;20075;-65
2021/05/01 11:30:24;;;;;;;24.35;18.08;;;19.40;40.80;;;;;;5066887;28;20155;-67
2021/05/01 11:32:51;;;;;;;25.40;18.40;;;19.40;41.60;;;;;;5072124;28;20047;-66
2021/05/01 11:35:24;;;;;;;25.73;18.45;;;19.50;41.10;;;;;;5070002;28;20032;-65
2021/05/01 11:37:59;;;;;;;28.35;19.27;;;19.60;41.70;;;;;;5052629;28;20073;-66
2021/05/01 11:40:27;;;;;;;27.30;17.05;;;19.70;41.20;;;;;;5073039;28;20096;-65
2021/05/01 11:42:59;;;;;;;23.73;17.13;;;19.90;41.40;;;;;;5072205;28;20089;-66
2021/05/01 11:45:40;;;;;;;25.52;17.20;;;20.20;41.00;;;;;;5071156;28;20114;-66
2021/05/01 11:48:11;;;;;;;24.85;17.48;;;20.50;40.50;;;;;;5066060;28;20145;-66
2021/05/01 11:50:39;;;;;;;26.73;17.02;;;20.70;40.00;;;;;;5075954;28;20412;-67
2021/05/01 11:53:26;;;;;;;25.83;17.08;;;20.70;39.20;;;;;;5071537;28;20032;-65
2021/05/01 11:56:25;;;;;;;26.98;17.55;;;20.70;38.60;;;;;;5071144;28;20129;-66
2021/05/01 11:58:50;;;;;;;22.35;16.88;;;20.70;38.20;;;;;;5068984;28;20127;-65
2021/05/01 12:01:22;;;;;;;25.30;17.85;;;20.60;38.30;;;;;;5078783;28;20168;-65
2021/05/01 12:04:01;;;;;;;25.02;17.77;;;20.50;39.30;;;;;;5077127;28;20637;-65
2021/05/01 12:06:29;;;;;;;26.35;16.85;;;20.70;39.50;;;;;;5075220;28;20081;-65
2021/05/01 12:09:00;;;;;;;28.05;17.25;;;20.90;39.30;;;;;;5043393;28;20040;-66
2021/05/01 12:11:30;;;;;;;24.38;17.10;;;21.10;39.70;;;;;;5065257;28;20071;-65
2021/05/01 12:13:59;;;;;;;21.70;15.82;;;21.40;38.70;;;;;;5074974;28;20036;-65
2021/05/01 12:16:25;;;;;;;24.17;17.00;;;21.60;37.80;;;;;;5075944;28;20713;-65
2021/05/01 12:18:55;;;;;;;25.58;15.40;;;21.70;39.00;;;;;;5064665;28;20044;-65
2021/05/01 12:21:27;;;;;;;21.38;15.07;;;22.00;37.90;;;;;;5077370;28;20109;-65
2021/05/01 12:23:57;;;;;;;22.42;15.73;;;22.20;36.00;;;;;;5068890;28;20040;-65
2021/05/01 12:26:32;;;;;;;22.20;15.52;;;22.40;36.80;;;;;;5076547;28;20048;-65
2021/05/01 12:29:20;;;;;;;18.25;14.05;;;22.60;36.50;;;;;;5049239;28;20199;-65
2021/05/01 12:31:47;;;;;;;18.70;13.73;;;22.90;35.70;;;;;;5048155;28;20032;-65
2021/05/01 12:34:13;;;;;;;19.65;14.60;;;23.10;34.80;;;;;;5068200;28;20841;-65
2021/05/01 12:36:49;;;;;;;17.33;13.05;;;23.20;35.00;;;;;;5047544;28;20043;-65
2021/05/01 12:39:20;;;;;;;25.25;13.68;;;23.30;35.20;;;;;;5063315;28;20806;-66